createdAt,value
2017-11-08T00:01:10.554Z,82.35
2017-11-08T00:03:38.086Z,83.35
2017-11-08T00:06:06.405Z,68.10
2017-11-08T00:08:33.934Z,75.68
2017-11-08T00:11:01.490Z,78.32
2017-11-08T00:13:29.041Z,82.95
2017-11-08T00:15:59.323Z,85.30
2017-11-08T00:18:26.877Z,83.65
2017-11-08T00:20:57.262Z,81.30
2017-11-08T00:23:26.749Z,79.40
2017-11-08T00:25:55.072Z,77.65
2017-11-08T00:28:22.613Z,91.55
2017-11-08T00:30:50.153Z,89.37
2017-11-08T00:33:18.484Z,85.35
2017-11-08T00:35:46.010Z,89.28
2017-11-08T00:38:13.565Z,94.32
2017-11-08T00:40:41.115Z,84.82
2017-11-08T00:43:08.674Z,91.63
2017-11-08T00:45:36.210Z,106.30
2017-11-08T00:48:03.769Z,88.75
2017-11-08T00:50:32.109Z,101.93
2017-11-08T00:53:02.160Z,102.18
2017-11-08T00:55:29.698Z,91.05
2017-11-08T00:58:01.161Z,95.85
2017-11-08T01:00:28.697Z,153.35
2017-11-08T01:02:56.251Z,167.80
2017-11-08T01:05:23.785Z,108.57
2017-11-08T01:07:51.314Z,74.53
2017-11-08T01:10:19.621Z,84.05
2017-11-08T01:12:47.173Z,88.60
2017-11-08T01:15:14.717Z,81.87
2017-11-08T01:17:43.020Z,78.00
2017-11-08T01:20:10.570Z,78.10
2017-11-08T01:22:38.100Z,70.32
2017-11-08T01:25:06.419Z,82.43
2017-11-08T01:27:33.954Z,77.50
2017-11-08T01:30:02.277Z,72.25
2017-11-08T01:32:29.826Z,73.00
2017-11-08T01:34:57.479Z,78.00
2017-11-08T01:37:36.689Z,71.97
2017-11-08T01:40:11.013Z,66.10
2017-11-08T01:42:38.563Z,76.57
2017-11-08T01:45:08.045Z,74.40
2017-11-08T01:47:36.356Z,72.30
2017-11-08T01:50:03.936Z,72.82
2017-11-08T01:52:31.502Z,65.05
2017-11-08T01:54:59.036Z,80.00
2017-11-08T01:57:26.571Z,71.20
2017-11-08T01:59:54.921Z,60.75
2017-11-08T02:02:22.470Z,59.47
2017-11-08T02:04:50.021Z,66.40
2017-11-08T02:07:17.593Z,63.42
2017-11-08T02:09:45.119Z,63.25
2017-11-08T02:12:12.692Z,81.12
2017-11-08T02:14:40.287Z,62.30
2017-11-08T02:17:08.617Z,57.40
2017-11-08T02:19:36.144Z,63.10
2017-11-08T02:22:04.465Z,68.12
2017-11-08T02:24:31.992Z,61.25
2017-11-08T02:27:06.049Z,71.97
2017-11-08T02:29:33.654Z,70.80
2017-11-08T02:32:01.983Z,72.50
2017-11-08T02:34:29.513Z,65.28
2017-11-08T02:36:57.059Z,57.13
2017-11-08T02:39:25.356Z,68.90
2017-11-08T02:41:52.912Z,69.72
2017-11-08T02:44:20.472Z,58.47
2017-11-08T02:46:50.917Z,71.25
2017-11-08T02:49:18.470Z,58.20
2017-11-08T02:51:46.020Z,57.75
2017-11-08T02:54:14.449Z,62.40
2017-11-08T02:56:42.014Z,59.47
2017-11-08T02:59:09.578Z,53.85
2017-11-08T03:01:37.111Z,65.70
2017-11-08T03:04:07.638Z,65.28
2017-11-08T03:06:35.158Z,59.88
2017-11-08T03:09:03.459Z,55.65
2017-11-08T03:11:31.016Z,58.75
2017-11-08T03:13:58.538Z,52.33
2017-11-08T03:16:26.856Z,53.05
2017-11-08T03:18:54.418Z,49.40
2017-11-08T03:21:21.953Z,39.42
2017-11-08T03:23:49.498Z,35.90
2017-11-08T03:26:17.812Z,37.05
2017-11-08T03:28:45.345Z,35.65
2017-11-08T03:31:13.655Z,41.65
2017-11-08T03:33:41.197Z,43.20
2017-11-08T03:36:08.757Z,36.53
2017-11-08T03:38:36.298Z,43.45
2017-11-08T03:41:04.710Z,41.80
2017-11-08T03:43:32.268Z,35.67
2017-11-08T03:45:59.821Z,36.50
2017-11-08T03:48:27.349Z,30.20
2017-11-08T03:50:55.650Z,34.50
2017-11-08T03:53:23.197Z,31.05
2017-11-08T03:55:51.480Z,34.25
2017-11-08T03:58:19.026Z,33.33
2017-11-08T04:00:47.317Z,28.70
2017-11-08T04:03:14.877Z,29.92
2017-11-08T04:05:42.412Z,26.02
2017-11-08T04:08:10.737Z,32.13
2017-11-08T04:10:38.284Z,26.42
2017-11-08T04:13:05.854Z,28.10
2017-11-08T04:15:33.388Z,29.80
2017-11-08T04:18:01.714Z,29.15
2017-11-08T04:20:29.241Z,26.02
2017-11-08T04:22:56.915Z,31.58
2017-11-08T04:25:24.477Z,32.72
2017-11-08T04:27:52.053Z,30.73
2017-11-08T04:30:19.699Z,29.33
2017-11-08T04:32:47.256Z,27.87
2017-11-08T04:35:15.352Z,31.35
2017-11-08T04:37:42.914Z,30.48
2017-11-08T04:40:10.456Z,33.58
2017-11-08T04:42:37.994Z,26.15
2017-11-08T04:45:05.550Z,23.52
2017-11-08T04:47:33.114Z,21.50
2017-11-08T04:50:00.649Z,27.52
2017-11-08T04:52:28.992Z,20.95
2017-11-08T04:54:56.517Z,26.20
2017-11-08T04:57:24.046Z,25.65
2017-11-08T04:59:52.471Z,22.48
2017-11-08T05:02:20.023Z,22.10
2017-11-08T05:04:47.581Z,23.20
2017-11-08T05:07:15.126Z,23.15
2017-11-08T05:09:42.677Z,23.33
2017-11-08T05:12:10.998Z,19.45
2017-11-08T05:14:39.383Z,15.52
2017-11-08T05:17:06.942Z,17.25
2017-11-08T05:19:34.465Z,11.75
2017-11-08T05:22:02.014Z,19.92
2017-11-08T05:24:29.554Z,14.10
2017-11-08T05:26:57.852Z,15.15
2017-11-08T05:29:25.405Z,15.82
2017-11-08T05:31:53.694Z,18.00
2017-11-08T05:34:21.254Z,18.87
2017-11-08T05:36:48.785Z,22.08
2017-11-08T05:39:17.092Z,20.88
2017-11-08T05:41:44.628Z,20.35
2017-11-08T05:44:12.958Z,16.02
2017-11-08T05:46:40.494Z,11.80
2017-11-08T05:49:08.036Z,18.08
2017-11-08T05:51:36.368Z,18.98
2017-11-08T05:54:03.951Z,14.68
2017-11-08T05:56:31.496Z,15.52
2017-11-08T05:58:59.025Z,11.45
2017-11-08T06:01:26.569Z,12.98
2017-11-08T06:03:54.097Z,10.20
2017-11-08T06:06:22.397Z,14.02
2017-11-08T06:08:49.937Z,10.90
2017-11-08T06:11:18.246Z,11.80
2017-11-08T06:13:45.765Z,8.82
2017-11-08T06:16:14.072Z,12.25
2017-11-08T06:18:41.592Z,11.07
2017-11-08T06:21:09.140Z,12.73
2017-11-08T06:23:36.697Z,9.43
2017-11-08T06:26:04.216Z,8.93
2017-11-08T06:28:31.783Z,10.35
2017-11-08T06:30:59.334Z,10.25
2017-11-08T06:33:26.914Z,8.60
2017-11-08T06:35:54.437Z,9.77
2017-11-08T06:38:21.986Z,10.50
2017-11-08T06:40:50.298Z,9.57
2017-11-08T06:43:17.825Z,7.50
2017-11-08T06:45:46.153Z,7.60
2017-11-08T06:48:13.686Z,10.18
2017-11-08T06:50:41.235Z,6.47
2017-11-08T06:53:08.779Z,9.25
2017-11-08T06:55:37.095Z,8.10
2017-11-08T06:58:04.618Z,8.90
2017-11-08T07:00:32.939Z,8.23
2017-11-08T07:03:00.481Z,9.20
2017-11-08T07:05:28.003Z,10.32
2017-11-08T07:07:56.340Z,10.60
2017-11-08T07:10:23.885Z,12.70
2017-11-08T07:12:51.443Z,11.32
2017-11-08T07:15:18.986Z,17.12
2017-11-08T07:17:46.537Z,10.10
2017-11-08T07:20:14.847Z,10.55
2017-11-08T07:22:42.390Z,13.48
2017-11-08T07:25:09.920Z,12.25
2017-11-08T07:27:38.249Z,7.95
2017-11-08T07:30:05.801Z,10.77
2017-11-08T07:32:33.325Z,6.90
2017-11-08T07:35:01.660Z,6.55
2017-11-08T07:37:29.191Z,6.90
2017-11-08T07:39:56.734Z,8.75
2017-11-08T07:42:24.268Z,5.37
2017-11-08T07:44:52.589Z,6.40
2017-11-08T07:47:20.258Z,5.55
2017-11-08T07:49:48.998Z,4.45
2017-11-08T07:52:17.294Z,4.85
2017-11-08T07:54:47.596Z,6.90
2017-11-08T07:57:15.158Z,7.30
2017-11-08T07:59:59.357Z,6.53
2017-11-08T08:02:26.884Z,6.60
2017-11-08T08:04:54.431Z,6.57
2017-11-08T08:07:25.760Z,9.23
2017-11-08T08:09:53.292Z,7.12
2017-11-08T08:12:20.853Z,8.27
2017-11-08T08:14:48.377Z,6.87
2017-11-08T08:17:17.845Z,7.12
2017-11-08T08:19:45.378Z,8.77
2017-11-08T08:22:12.904Z,8.20
2017-11-08T08:24:41.284Z,10.07
2017-11-08T08:27:09.740Z,10.38
2017-11-08T08:29:39.851Z,12.30
2017-11-08T08:32:07.401Z,11.40
2017-11-08T08:34:34.937Z,9.93
2017-11-08T08:37:02.493Z,12.20
2017-11-08T08:39:30.144Z,11.05
2017-11-08T08:41:57.681Z,16.83
2017-11-08T08:44:25.258Z,13.45
2017-11-08T08:46:53.013Z,11.55
2017-11-08T08:49:20.576Z,15.95
2017-11-08T08:51:48.116Z,12.55
2017-11-08T08:54:16.431Z,11.88
2017-11-08T08:56:43.959Z,12.82
2017-11-08T08:59:11.509Z,12.90
2017-11-08T09:01:39.811Z,11.65
2017-11-08T09:04:07.354Z,12.95
2017-11-08T09:06:34.889Z,11.85
2017-11-08T09:09:02.416Z,8.95
2017-11-08T09:11:30.060Z,9.23
2017-11-08T09:13:57.724Z,9.38
2017-11-08T09:16:26.219Z,5.10
2017-11-08T09:18:53.747Z,4.70
2017-11-08T09:21:21.281Z,5.20
2017-11-08T09:23:49.622Z,4.85
2017-11-08T09:26:17.182Z,4.05
2017-11-08T09:28:44.745Z,3.47
2017-11-08T09:31:17.910Z,5.15
2017-11-08T09:33:45.462Z,3.92
2017-11-08T09:36:14.868Z,2.60
2017-11-08T09:38:42.417Z,3.50
2017-11-08T09:41:09.968Z,4.68
2017-11-08T09:43:38.286Z,4.68
2017-11-08T09:46:05.827Z,12.60
2017-11-08T09:48:33.373Z,33.10
2017-11-08T09:51:00.912Z,3.58
2017-11-08T09:53:29.209Z,4.05
2017-11-08T09:55:58.645Z,3.50
2017-11-08T09:58:27.033Z,10.82
2017-11-08T10:00:56.575Z,3.75
2017-11-08T10:03:24.873Z,4.93
2017-11-08T10:05:52.429Z,1.98
2017-11-08T10:08:19.961Z,2.58
2017-11-08T10:10:48.287Z,7.05
2017-11-08T10:13:18.633Z,5.90
2017-11-08T10:15:46.176Z,1.70
2017-11-08T10:18:13.694Z,10.05
2017-11-08T10:20:42.016Z,2.78
2017-11-08T10:23:09.549Z,2.58
2017-11-08T10:25:37.108Z,2.67
2017-11-08T10:28:04.639Z,2.70
2017-11-08T10:30:32.948Z,1.75
2017-11-08T10:33:00.496Z,1.85
2017-11-08T10:35:28.927Z,5.05
2017-11-08T10:37:56.537Z,3.17
2017-11-08T10:40:24.916Z,10.88
2017-11-08T10:42:53.296Z,2.62
2017-11-08T10:45:21.497Z,1.40
2017-11-08T10:47:49.207Z,1.67
2017-11-08T10:50:16.806Z,6.37
2017-11-08T10:52:46.345Z,1.20
2017-11-08T10:55:13.949Z,4.70
2017-11-08T10:57:41.638Z,4.12
2017-11-08T11:00:24.109Z,5.05
2017-11-08T11:15:58.319Z,1.50
2017-11-08T11:18:25.971Z,1.58
2017-11-08T11:20:54.263Z,0.90
2017-11-08T11:23:21.849Z,2.45
2017-11-08T11:25:51.342Z,1.10
2017-11-08T11:28:18.888Z,1.48
2017-11-08T11:30:46.429Z,1.20
2017-11-08T11:33:14.761Z,2.08
2017-11-08T11:35:42.395Z,0.82
2017-11-08T11:38:10.716Z,0.82
2017-11-08T11:40:38.278Z,0.90
2017-11-08T11:43:05.819Z,0.80
2017-11-08T11:45:33.399Z,1.00
2017-11-08T11:48:00.954Z,0.80
2017-11-08T11:50:31.429Z,0.80
2017-11-08T11:52:59.014Z,0.93
2017-11-08T11:55:27.225Z,0.80
2017-11-08T11:57:54.760Z,0.93
2017-11-08T12:00:22.302Z,1.00
2017-11-08T12:02:49.835Z,1.60
2017-11-08T12:05:17.410Z,0.98
2017-11-08T12:07:44.938Z,0.90
2017-11-08T12:10:12.579Z,1.12
2017-11-08T12:12:40.143Z,1.15
2017-11-08T12:15:07.704Z,0.80
2017-11-08T12:17:35.324Z,0.70
2017-11-08T12:20:02.956Z,1.35
2017-11-08T12:22:31.282Z,1.30
2017-11-08T12:24:58.858Z,1.05
2017-11-08T12:27:32.257Z,1.95
2017-11-08T12:29:59.878Z,0.95
2017-11-08T12:32:27.568Z,1.10
2017-11-08T12:34:58.923Z,1.60
2017-11-08T12:37:27.364Z,0.82
2017-11-08T12:39:56.851Z,1.45
2017-11-08T12:42:25.179Z,1.40
2017-11-08T12:44:57.507Z,1.58
2017-11-08T12:47:25.877Z,3.05
2017-11-08T12:49:54.173Z,1.40
2017-11-08T12:52:22.527Z,1.23
2017-11-08T12:54:50.267Z,1.15
2017-11-08T12:57:17.831Z,1.52
2017-11-08T12:59:45.416Z,1.37
2017-11-08T13:02:12.939Z,1.70
2017-11-08T13:04:40.485Z,1.40
2017-11-08T13:07:08.035Z,1.30
2017-11-08T13:09:37.495Z,4.10
2017-11-08T13:12:05.045Z,1.60
2017-11-08T13:14:33.199Z,1.70
2017-11-08T13:17:00.748Z,1.20
2017-11-08T13:19:28.337Z,3.75
2017-11-08T13:21:55.937Z,1.35
2017-11-08T13:24:24.310Z,1.60
2017-11-08T13:26:52.723Z,1.30
2017-11-08T13:29:20.284Z,1.33
2017-11-08T13:31:47.850Z,1.58
2017-11-08T13:34:15.435Z,1.60
2017-11-08T13:36:43.002Z,1.65
2017-11-08T13:39:10.559Z,1.55
2017-11-08T13:41:38.114Z,1.60
2017-11-08T13:44:05.710Z,1.98
2017-11-08T13:46:34.141Z,1.67
2017-11-08T13:49:01.724Z,2.28
2017-11-08T13:51:29.311Z,2.00
2017-11-08T13:53:57.763Z,2.03
2017-11-08T13:56:25.394Z,1.45
2017-11-08T13:58:52.987Z,1.60
2017-11-08T14:01:20.723Z,1.40
2017-11-08T14:03:48.331Z,1.50
2017-11-08T14:06:15.946Z,1.60
2017-11-08T14:08:43.487Z,2.28
2017-11-08T14:11:11.009Z,1.90
2017-11-08T14:13:38.563Z,1.98
2017-11-08T14:16:06.106Z,2.80
2017-11-08T14:18:34.437Z,2.03
2017-11-08T14:21:01.979Z,1.95
2017-11-08T14:23:29.512Z,2.80
2017-11-08T14:25:57.829Z,4.18
2017-11-08T14:28:25.406Z,3.55
2017-11-08T14:30:52.981Z,3.05
2017-11-08T14:33:20.502Z,3.95
2017-11-08T14:35:48.085Z,2.90
2017-11-08T14:38:15.626Z,3.25
2017-11-08T14:40:43.502Z,3.40
2017-11-08T14:43:11.063Z,3.60
2017-11-08T14:45:38.621Z,2.70
2017-11-08T14:48:06.163Z,3.95
2017-11-08T14:50:33.702Z,2.72
2017-11-08T14:53:07.885Z,2.78
2017-11-08T14:55:35.470Z,2.55
2017-11-08T14:58:03.773Z,2.55
2017-11-08T15:00:31.341Z,3.50
2017-11-08T15:02:58.874Z,2.20
2017-11-08T15:05:26.451Z,2.60
2017-11-08T15:07:54.018Z,2.22
2017-11-08T15:10:21.565Z,3.10
2017-11-08T15:12:49.119Z,3.55
2017-11-08T15:15:19.589Z,5.07
2017-11-08T15:17:47.151Z,2.37
2017-11-08T15:20:20.361Z,2.10
2017-11-08T15:22:47.914Z,2.50
2017-11-08T15:25:15.460Z,1.90
2017-11-08T15:27:43.031Z,2.33
2017-11-08T15:30:16.974Z,2.15
2017-11-08T15:32:47.126Z,2.25
2017-11-08T15:35:14.679Z,2.00
2017-11-08T15:37:42.207Z,1.70
2017-11-08T15:40:10.519Z,1.77
2017-11-08T15:42:38.047Z,3.33
2017-11-08T15:45:06.401Z,2.80
2017-11-08T15:47:37.961Z,3.25
2017-11-08T15:50:05.601Z,3.35
2017-11-08T15:52:33.177Z,4.00
2017-11-08T15:55:00.756Z,4.00
2017-11-08T15:57:29.061Z,7.28
2017-11-08T15:59:56.661Z,5.40
2017-11-08T16:02:24.210Z,5.22
2017-11-08T16:04:51.746Z,5.32
2017-11-08T16:07:19.299Z,5.00
2017-11-08T16:09:46.962Z,5.18
2017-11-08T16:12:14.601Z,5.93
2017-11-08T16:14:42.985Z,6.60
2017-11-08T16:17:12.288Z,10.93
2017-11-08T16:19:40.666Z,10.75
2017-11-08T16:22:09.093Z,7.00
2017-11-08T16:24:36.718Z,9.40
2017-11-08T16:27:05.069Z,7.95
2017-11-08T16:29:32.718Z,8.98
2017-11-08T16:32:00.250Z,8.45
2017-11-08T16:34:27.828Z,6.60
2017-11-08T16:36:55.350Z,6.40
2017-11-08T16:39:22.962Z,6.00
2017-11-08T16:41:50.545Z,6.53
2017-11-08T16:44:18.951Z,4.80
2017-11-08T16:46:46.486Z,5.25
2017-11-08T16:49:14.822Z,6.22
2017-11-08T16:51:42.401Z,5.78
2017-11-08T16:54:10.016Z,5.10
2017-11-08T16:56:37.572Z,7.05
2017-11-08T16:59:05.107Z,4.10
2017-11-08T17:01:33.428Z,7.00
2017-11-08T17:04:01.046Z,6.80
2017-11-08T17:06:29.408Z,6.30
2017-11-08T17:08:56.936Z,7.00
2017-11-08T17:11:24.550Z,6.47
2017-11-08T17:13:52.853Z,12.65
2017-11-08T17:16:20.439Z,12.77
2017-11-08T17:18:48.007Z,10.10
2017-11-08T17:21:15.656Z,11.23
2017-11-08T17:23:43.212Z,11.80
2017-11-08T17:26:10.788Z,15.43
2017-11-08T17:28:38.341Z,12.85
2017-11-08T17:31:05.922Z,14.68
2017-11-08T17:33:33.907Z,15.77
2017-11-08T17:36:02.220Z,16.17
2017-11-08T17:38:29.863Z,13.52
2017-11-08T17:40:57.536Z,13.35
2017-11-08T17:43:25.159Z,12.77
2017-11-08T17:45:52.767Z,11.12
2017-11-08T17:48:20.332Z,13.62
2017-11-08T17:50:47.870Z,12.70
2017-11-08T17:53:15.517Z,15.70
2017-11-08T17:55:43.840Z,10.38
2017-11-08T17:58:11.369Z,11.65
2017-11-08T18:00:39.688Z,11.07
2017-11-08T18:03:07.214Z,14.73
2017-11-08T18:05:34.762Z,10.93
2017-11-08T18:08:02.325Z,11.75
2017-11-08T18:10:29.902Z,10.10
2017-11-08T18:12:57.435Z,11.05
2017-11-08T18:15:25.827Z,11.82
2017-11-08T18:17:53.435Z,11.48
2017-11-08T18:20:20.974Z,10.95
2017-11-08T18:22:48.531Z,9.50
2017-11-08T18:25:16.084Z,11.80
2017-11-08T18:27:43.635Z,12.82
2017-11-08T18:30:11.219Z,13.10
2017-11-08T18:32:38.949Z,12.25
2017-11-08T18:35:06.543Z,11.32
2017-11-08T18:37:34.132Z,14.15
2017-11-08T18:40:01.682Z,9.35
2017-11-08T18:42:29.234Z,10.15
2017-11-08T18:44:56.789Z,11.60
2017-11-08T18:47:24.356Z,11.88
2017-11-08T18:49:51.922Z,12.20
2017-11-08T18:52:19.483Z,12.63
2017-11-08T18:54:47.075Z,12.05
2017-11-08T18:57:15.420Z,10.45
2017-11-08T18:59:42.982Z,15.45
2017-11-08T19:02:10.510Z,10.52
2017-11-08T19:04:38.078Z,15.05
2017-11-08T19:07:05.643Z,11.70
2017-11-08T19:09:33.199Z,12.98
2017-11-08T19:12:00.768Z,12.07
2017-11-08T19:14:28.342Z,14.85
2017-11-08T19:16:55.920Z,13.18
2017-11-08T19:19:23.478Z,13.88
2017-11-08T19:21:51.053Z,12.48
2017-11-08T19:24:19.375Z,12.05
2017-11-08T19:26:46.948Z,12.35
2017-11-08T19:29:14.519Z,13.57
2017-11-08T19:31:42.050Z,12.95
2017-11-08T19:34:09.623Z,12.68
2017-11-08T19:36:37.190Z,11.73
2017-11-08T19:39:04.743Z,12.80
2017-11-08T19:41:32.279Z,11.50
2017-11-08T19:43:59.853Z,11.95
2017-11-08T19:46:27.409Z,12.80
2017-11-08T19:48:54.980Z,15.18
2017-11-08T19:51:22.542Z,14.55
2017-11-08T19:53:50.095Z,13.70
2017-11-08T19:56:17.682Z,16.58
2017-11-08T19:58:45.236Z,13.30
2017-11-08T20:01:12.808Z,14.20
2017-11-08T20:03:40.373Z,13.95
2017-11-08T20:06:07.992Z,9.95
2017-11-08T20:08:35.524Z,13.15
2017-11-08T20:11:03.090Z,14.48
2017-11-08T20:13:30.624Z,11.00
2017-11-08T20:15:58.952Z,11.27
2017-11-08T20:18:27.272Z,13.55
2017-11-08T20:20:54.817Z,13.75
2017-11-08T20:23:23.267Z,10.73
2017-11-08T20:25:51.586Z,13.10
2017-11-08T20:28:19.145Z,17.77
2017-11-08T20:30:46.689Z,11.90
2017-11-08T20:33:14.247Z,11.85
2017-11-08T20:35:41.802Z,16.50
2017-11-08T20:38:09.366Z,14.15
2017-11-08T20:40:36.906Z,10.80
2017-11-08T20:43:05.790Z,14.07
2017-11-08T20:45:34.097Z,12.45
2017-11-08T20:48:01.698Z,15.02
2017-11-08T20:50:29.332Z,13.68
2017-11-08T20:52:56.869Z,12.13
2017-11-08T20:55:24.409Z,10.32
2017-11-08T20:57:51.957Z,11.57
2017-11-08T21:00:19.497Z,11.88
2017-11-08T21:02:47.822Z,12.98
2017-11-08T21:05:15.370Z,15.20
2017-11-08T21:07:42.908Z,13.82
2017-11-08T21:10:10.477Z,12.30
2017-11-08T21:12:38.046Z,13.05
2017-11-08T21:15:05.621Z,13.35
2017-11-08T21:17:33.179Z,14.07
2017-11-08T21:20:00.743Z,12.25
2017-11-08T21:22:28.315Z,14.85
2017-11-08T21:24:55.882Z,13.32
2017-11-08T21:27:23.425Z,15.10
2017-11-08T21:29:50.997Z,18.55
2017-11-08T21:32:18.568Z,13.30
2017-11-08T21:34:46.106Z,17.08
2017-11-08T21:37:13.682Z,17.80
2017-11-08T21:39:41.233Z,14.65
2017-11-08T21:42:09.163Z,14.95
2017-11-08T21:44:36.710Z,14.82
2017-11-08T21:47:04.256Z,13.00
2017-11-08T21:49:32.673Z,16.92
2017-11-08T21:52:00.251Z,17.85
2017-11-08T21:54:27.902Z,34.40
2017-11-08T21:56:55.470Z,21.30
2017-11-08T21:59:23.326Z,20.85
2017-11-08T22:01:50.905Z,19.40
2017-11-08T22:04:18.480Z,12.85
2017-11-08T22:06:46.221Z,14.00
2017-11-08T22:09:13.789Z,15.70
2017-11-08T22:11:41.640Z,14.25
2017-11-08T22:14:09.208Z,13.43
2017-11-08T22:16:36.742Z,17.58
2017-11-08T22:19:04.319Z,13.82
2017-11-08T22:21:31.892Z,15.23
2017-11-08T22:23:59.445Z,13.93
2017-11-08T22:26:27.000Z,15.23
2017-11-08T22:28:54.543Z,15.82
2017-11-08T22:31:22.107Z,12.77
2017-11-08T22:33:49.686Z,13.05
2017-11-08T22:36:17.255Z,12.82
2017-11-08T22:38:45.556Z,14.20
2017-11-08T22:41:13.175Z,15.07
2017-11-08T22:43:40.719Z,15.43
2017-11-08T22:46:08.271Z,13.98
2017-11-08T22:48:35.819Z,15.13
2017-11-08T22:51:04.118Z,15.40
2017-11-08T22:53:31.729Z,16.90
2017-11-08T22:55:59.279Z,15.18
2017-11-08T22:58:26.840Z,16.12
2017-11-08T23:00:54.368Z,13.50
2017-11-08T23:03:21.929Z,13.20
2017-11-08T23:05:49.525Z,14.13
2017-11-08T23:08:17.095Z,16.90
2017-11-08T23:10:44.653Z,17.52
2017-11-08T23:13:12.213Z,13.10
2017-11-08T23:15:39.741Z,17.17
2017-11-08T23:18:07.313Z,12.55
2017-11-08T23:20:34.890Z,13.77
2017-11-08T23:23:02.442Z,14.45
2017-11-08T23:25:30.041Z,14.90
2017-11-08T23:27:57.579Z,12.60
2017-11-08T23:30:25.935Z,12.18
2017-11-08T23:32:53.477Z,14.70
2017-11-08T23:35:21.036Z,18.12
2017-11-08T23:37:48.595Z,14.90
2017-11-08T23:40:16.140Z,12.60
2017-11-08T23:42:43.705Z,16.02
2017-11-08T23:45:11.262Z,12.85
2017-11-08T23:47:38.813Z,15.35
2017-11-08T23:50:06.338Z,11.40
2017-11-08T23:52:34.667Z,12.95
2017-11-08T23:55:02.805Z,15.05
2017-11-08T23:57:31.131Z,13.82
